sensor_id;sensor_type;location;lat;lon;timestamp;P1;durP1;ratioP1;P2;durP2;ratioP2
22017;SDS011;11173;51.050;7.108;2024-01-06T00:00:36;2.65;;;2.38;;
22017;SDS011;11173;51.050;7.108;2024-01-06T00:10:37;1.50;;;1.40;;
22017;SDS011;11173;51.050;7.108;2024-01-06T00:20:37;2.58;;;2.38;;
22017;SDS011;11173;51.050;7.108;2024-01-06T00:30:38;1.10;;;1.10;;
22017;SDS011;11173;51.050;7.108;2024-01-06T00:40:38;1.13;;;1.10;;
22017;SDS011;11173;51.050;7.108;2024-01-06T00:50:38;1.00;;;0.90;;
22017;SDS011;11173;51.050;7.108;2024-01-06T01:00:39;1.20;;;1.10;;
22017;SDS011;11173;51.050;7.108;2024-01-06T01:10:40;0.90;;;0.90;;
22017;SDS011;11173;51.050;7.108;2024-01-06T01:20:40;1.52;;;1.42;;
22017;SDS011;11173;51.050;7.108;2024-01-06T01:30:43;2.10;;;2.00;;
22017;SDS011;11173;51.050;7.108;2024-01-06T01:40:44;1.77;;;1.67;;
22017;SDS011;11173;51.050;7.108;2024-01-06T01:50:44;2.25;;;2.15;;
22017;SDS011;11173;51.050;7.108;2024-01-06T02:00:45;1.50;;;1.40;;
22017;SDS011;11173;51.050;7.108;2024-01-06T02:10:45;2.40;;;2.22;;
22017;SDS011;11173;51.050;7.108;2024-01-06T02:20:46;3.53;;;3.33;;
22017;SDS011;11173;51.050;7.108;2024-01-06T02:30:49;2.72;;;2.53;;
22017;SDS011;11173;51.050;7.108;2024-01-06T02:40:49;4.55;;;4.15;;
22017;SDS011;11173;51.050;7.108;2024-01-06T02:50:49;4.22;;;3.92;;
22017;SDS011;11173;51.050;7.108;2024-01-06T03:00:50;5.95;;;5.38;;
22017;SDS011;11173;51.050;7.108;2024-01-06T03:10:51;6.65;;;6.05;;
22017;SDS011;11173;51.050;7.108;2024-01-06T03:20:51;6.82;;;6.22;;
22017;SDS011;11173;51.050;7.108;2024-01-06T03:30:51;6.82;;;6.22;;
22017;SDS011;11173;51.050;7.108;2024-01-06T03:40:52;7.18;;;6.50;;
22017;SDS011;11173;51.050;7.108;2024-01-06T03:50:52;4.82;;;4.43;;
22017;SDS011;11173;51.050;7.108;2024-01-06T04:00:52;6.75;;;6.15;;
22017;SDS011;11173;51.050;7.108;2024-01-06T04:10:53;5.22;;;4.68;;
22017;SDS011;11173;51.050;7.108;2024-01-06T04:20:53;4.35;;;4.05;;
22017;SDS011;11173;51.050;7.108;2024-01-06T04:30:54;4.95;;;4.50;;
22017;SDS011;11173;51.050;7.108;2024-01-06T04:40:54;4.57;;;4.18;;
22017;SDS011;11173;51.050;7.108;2024-01-06T04:50:55;5.40;;;4.93;;
22017;SDS011;11173;51.050;7.108;2024-01-06T05:00:55;8.93;;;7.60;;
22017;SDS011;11173;51.050;7.108;2024-01-06T05:10:56;9.43;;;8.50;;
22017;SDS011;11173;51.050;7.108;2024-01-06T05:20:56;12.02;;;9.27;;
22017;SDS011;11173;51.050;7.108;2024-01-06T05:30:57;11.57;;;10.27;;
22017;SDS011;11173;51.050;7.108;2024-01-06T05:40:57;15.27;;;12.20;;
22017;SDS011;11173;51.050;7.108;2024-01-06T05:50:58;14.32;;;11.05;;
22017;SDS011;11173;51.050;7.108;2024-01-06T06:00:58;8.98;;;7.50;;
22017;SDS011;11173;51.050;7.108;2024-01-06T06:10:59;10.23;;;8.13;;
22017;SDS011;11173;51.050;7.108;2024-01-06T06:21:05;6.50;;;5.90;;
22017;SDS011;11173;51.050;7.108;2024-01-06T06:31:07;4.90;;;4.45;;
22017;SDS011;11173;51.050;7.108;2024-01-06T06:41:07;5.95;;;5.43;;
22017;SDS011;11173;51.050;7.108;2024-01-06T06:51:08;5.03;;;4.50;;
22017;SDS011;11173;51.050;7.108;2024-01-06T07:01:08;4.78;;;4.32;;
22017;SDS011;11173;51.050;7.108;2024-01-06T07:11:08;5.07;;;4.22;;
22017;SDS011;11173;51.050;7.108;2024-01-06T07:21:11;5.07;;;4.50;;
22017;SDS011;11173;51.050;7.108;2024-01-06T07:31:12;10.20;;;8.02;;
22017;SDS011;11173;51.050;7.108;2024-01-06T07:41:12;8.60;;;6.93;;
22017;SDS011;11173;51.050;7.108;2024-01-06T07:51:13;6.80;;;5.70;;
22017;SDS011;11173;51.050;7.108;2024-01-06T08:01:13;7.40;;;6.32;;
22017;SDS011;11173;51.050;7.108;2024-01-06T08:11:14;4.45;;;4.05;;
22017;SDS011;11173;51.050;7.108;2024-01-06T08:21:14;5.03;;;4.53;;
22017;SDS011;11173;51.050;7.108;2024-01-06T08:31:15;6.88;;;6.18;;
22017;SDS011;11173;51.050;7.108;2024-01-06T08:41:15;9.32;;;7.60;;
22017;SDS011;11173;51.050;7.108;2024-01-06T08:51:15;9.57;;;7.90;;
22017;SDS011;11173;51.050;7.108;2024-01-06T09:01:16;11.13;;;8.68;;
22017;SDS011;11173;51.050;7.108;2024-01-06T09:11:17;10.85;;;8.75;;
22017;SDS011;11173;51.050;7.108;2024-01-06T09:21:17;12.05;;;9.35;;
22017;SDS011;11173;51.050;7.108;2024-01-06T09:31:18;6.35;;;5.18;;
22017;SDS011;11173;51.050;7.108;2024-01-06T09:41:18;8.82;;;7.50;;
22017;SDS011;11173;51.050;7.108;2024-01-06T09:51:19;8.13;;;7.07;;
22017;SDS011;11173;51.050;7.108;2024-01-06T10:01:20;8.18;;;6.95;;
22017;SDS011;11173;51.050;7.108;2024-01-06T10:11:24;6.88;;;6.03;;
22017;SDS011;11173;51.050;7.108;2024-01-06T10:21:25;8.00;;;7.03;;
22017;SDS011;11173;51.050;7.108;2024-01-06T10:31:26;7.25;;;6.15;;
22017;SDS011;11173;51.050;7.108;2024-01-06T10:41:26;6.63;;;5.93;;
22017;SDS011;11173;51.050;7.108;2024-01-06T10:51:28;6.30;;;5.70;;
22017;SDS011;11173;51.050;7.108;2024-01-06T11:01:31;10.65;;;8.10;;
22017;SDS011;11173;51.050;7.108;2024-01-06T11:11:33;10.90;;;8.52;;
22017;SDS011;11173;51.050;7.108;2024-01-06T11:21:37;10.73;;;8.50;;
22017;SDS011;11173;51.050;7.108;2024-01-06T11:31:37;14.05;;;8.52;;
22017;SDS011;11173;51.050;7.108;2024-01-06T11:41:50;7.82;;;6.50;;
22017;SDS011;11173;51.050;7.108;2024-01-06T11:51:52;12.55;;;9.90;;
22017;SDS011;11173;51.050;7.108;2024-01-06T12:01:53;14.45;;;9.85;;
22017;SDS011;11173;51.050;7.108;2024-01-06T12:12:03;18.20;;;10.88;;
22017;SDS011;11173;51.050;7.108;2024-01-06T12:22:05;12.07;;;8.90;;
22017;SDS011;11173;51.050;7.108;2024-01-06T12:32:06;16.15;;;10.98;;
22017;SDS011;11173;51.050;7.108;2024-01-06T12:42:10;16.35;;;10.90;;
22017;SDS011;11173;51.050;7.108;2024-01-06T12:52:11;11.27;;;8.75;;
22017;SDS011;11173;51.050;7.108;2024-01-06T13:02:11;12.10;;;9.70;;
22017;SDS011;11173;51.050;7.108;2024-01-06T13:12:11;14.48;;;10.27;;
22017;SDS011;11173;51.050;7.108;2024-01-06T13:22:12;14.48;;;10.50;;
22017;SDS011;11173;51.050;7.108;2024-01-06T13:32:13;11.43;;;9.13;;
22017;SDS011;11173;51.050;7.108;2024-01-06T13:42:15;10.63;;;8.38;;
22017;SDS011;11173;51.050;7.108;2024-01-06T13:52:15;10.18;;;8.73;;
22017;SDS011;11173;51.050;7.108;2024-01-06T14:02:16;15.07;;;10.98;;
22017;SDS011;11173;51.050;7.108;2024-01-06T14:12:16;14.38;;;10.50;;
22017;SDS011;11173;51.050;7.108;2024-01-06T14:22:17;18.70;;;13.88;;
22017;SDS011;11173;51.050;7.108;2024-01-06T14:32:17;19.10;;;13.23;;
22017;SDS011;11173;51.050;7.108;2024-01-06T14:42:17;13.15;;;10.43;;
22017;SDS011;11173;51.050;7.108;2024-01-06T14:52:19;19.38;;;12.18;;
22017;SDS011;11173;51.050;7.108;2024-01-06T15:02:20;15.60;;;11.32;;
22017;SDS011;11173;51.050;7.108;2024-01-06T15:12:20;14.32;;;10.70;;
22017;SDS011;11173;51.050;7.108;2024-01-06T15:22:21;11.50;;;8.52;;
22017;SDS011;11173;51.050;7.108;2024-01-06T15:32:22;9.48;;;7.45;;
22017;SDS011;11173;51.050;7.108;2024-01-06T15:42:23;9.85;;;7.10;;
22017;SDS011;11173;51.050;7.108;2024-01-06T15:52:23;9.98;;;7.80;;
22017;SDS011;11173;51.050;7.108;2024-01-06T16:02:24;8.77;;;6.50;;
22017;SDS011;11173;51.050;7.108;2024-01-06T16:12:24;11.85;;;9.35;;
22017;SDS011;11173;51.050;7.108;2024-01-06T16:22:28;11.70;;;8.85;;
22017;SDS011;11173;51.050;7.108;2024-01-06T16:32:29;7.82;;;6.60;;
22017;SDS011;11173;51.050;7.108;2024-01-06T16:42:29;6.88;;;6.18;;
22017;SDS011;11173;51.050;7.108;2024-01-06T16:52:29;5.63;;;5.07;;
22017;SDS011;11173;51.050;7.108;2024-01-06T17:02:30;7.05;;;6.07;;
22017;SDS011;11173;51.050;7.108;2024-01-06T17:12:30;7.32;;;6.15;;
22017;SDS011;11173;51.050;7.108;2024-01-06T17:22:31;9.95;;;7.65;;
22017;SDS011;11173;51.050;7.108;2024-01-06T17:32:31;6.88;;;5.50;;
22017;SDS011;11173;51.050;7.108;2024-01-06T17:42:33;4.80;;;4.40;;
22017;SDS011;11173;51.050;7.108;2024-01-06T17:52:34;6.47;;;5.50;;
22017;SDS011;11173;51.050;7.108;2024-01-06T18:02:35;11.20;;;8.63;;
22017;SDS011;11173;51.050;7.108;2024-01-06T18:12:35;10.20;;;8.43;;
22017;SDS011;11173;51.050;7.108;2024-01-06T18:22:37;9.60;;;7.28;;
22017;SDS011;11173;51.050;7.108;2024-01-06T18:32:37;8.35;;;7.30;;
22017;SDS011;11173;51.050;7.108;2024-01-06T18:42:37;7.72;;;6.90;;
22017;SDS011;11173;51.050;7.108;2024-01-06T18:52:38;8.60;;;6.80;;
22017;SDS011;11173;51.050;7.108;2024-01-06T19:02:38;10.30;;;8.63;;
22017;SDS011;11173;51.050;7.108;2024-01-06T19:12:39;7.00;;;6.30;;
22017;SDS011;11173;51.050;7.108;2024-01-06T19:22:40;5.03;;;4.63;;
22017;SDS011;11173;51.050;7.108;2024-01-06T19:32:40;7.13;;;6.28;;
22017;SDS011;11173;51.050;7.108;2024-01-06T19:42:41;9.90;;;8.18;;
22017;SDS011;11173;51.050;7.108;2024-01-06T19:52:42;7.40;;;6.63;;
22017;SDS011;11173;51.050;7.108;2024-01-06T20:02:42;7.78;;;6.80;;
22017;SDS011;11173;51.050;7.108;2024-01-06T20:12:42;9.30;;;7.60;;
22017;SDS011;11173;51.050;7.108;2024-01-06T20:22:43;10.30;;;8.38;;
22017;SDS011;11173;51.050;7.108;2024-01-06T20:32:43;7.82;;;7.00;;
22017;SDS011;11173;51.050;7.108;2024-01-06T20:42:44;9.95;;;7.90;;
22017;SDS011;11173;51.050;7.108;2024-01-06T20:52:44;8.95;;;7.40;;
22017;SDS011;11173;51.050;7.108;2024-01-06T21:02:44;10.18;;;8.65;;
22017;SDS011;11173;51.050;7.108;2024-01-06T21:12:45;11.73;;;10.00;;
22017;SDS011;11173;51.050;7.108;2024-01-06T21:22:45;11.40;;;9.35;;
22017;SDS011;11173;51.050;7.108;2024-01-06T21:32:46;9.63;;;8.13;;
22017;SDS011;11173;51.050;7.108;2024-01-06T21:42:46;7.40;;;6.60;;
22017;SDS011;11173;51.050;7.108;2024-01-06T21:52:48;6.63;;;5.93;;
22017;SDS011;11173;51.050;7.108;2024-01-06T22:02:48;7.82;;;6.72;;
22017;SDS011;11173;51.050;7.108;2024-01-06T22:12:50;6.40;;;5.80;;
22017;SDS011;11173;51.050;7.108;2024-01-06T22:22:51;8.10;;;7.15;;
22017;SDS011;11173;51.050;7.108;2024-01-06T22:32:51;7.78;;;6.95;;
22017;SDS011;11173;51.050;7.108;2024-01-06T22:42:51;7.85;;;7.05;;
22017;SDS011;11173;51.050;7.108;2024-01-06T22:52:52;6.60;;;6.00;;
22017;SDS011;11173;51.050;7.108;2024-01-06T23:02:53;10.00;;;8.48;;
22017;SDS011;11173;51.050;7.108;2024-01-06T23:12:54;9.15;;;8.07;;
22017;SDS011;11173;51.050;7.108;2024-01-06T23:22:54;6.65;;;5.97;;
22017;SDS011;11173;51.050;7.108;2024-01-06T23:32:54;6.60;;;5.95;;
22017;SDS011;11173;51.050;7.108;2024-01-06T23:42:55;5.30;;;4.82;;
22017;SDS011;11173;51.050;7.108;2024-01-06T23:52:55;6.03;;;5.43;;
